Terminal Aerodrome Forecast
Issued by NWS

Home | Current Version | Previous Version | Text Only | Print | Product List | Glossary On
Versions: 1 2 3 4 5 6 7 8 9 10 11 12 13 14 15 16 17 18 19 20 21 22 23 24 25 26 27 28 29 30 31 32 33 34 35 36 37 38
339
FTUS45 KGJT 200542
TAFASE
TAF
KASE 200542Z 2006/2106 32003KT 2SM -SN BR FEW006 OVC020
     FM201300 26006KT 5SM BR VCSH OVC010
     FM201700 28006KT P6SM VCSH OVC015
     FM210000 27005KT P6SM BKN020
     FM210100 26005KT P6SM BKN035
     FM210400 20006KT P6SM BKN040=

USA.gov is the U.S. government's official web portal to all federal, state and local government web resources and services.